Time;durP1;ratioP1;P1;durP2;ratioP2;P2;SDS_P1;SDS_P2;PMS_P1;PMS_P2;Temp;Humidity;BMP_temperature;BMP_pressure;BME280_temperature;BME280_humidity;BME280_pressure;Samples;Min_cycle;Max_cycle;Signal;HPM_P1;HPM_P2
2023/02/17 00:01:14;;;;;;;2.37;2.17;;;8.40;85.40;;;;;;5035324;28;20666;-66
2023/02/17 00:03:40;;;;;;;4.53;1.97;;;8.30;85.00;;;;;;5043282;28;20622;-66
2023/02/17 00:06:10;;;;;;;2.00;1.90;;;8.30;84.90;;;;;;5030461;28;20650;-66
2023/02/17 00:08:38;;;;;;;2.97;1.53;;;8.20;85.20;;;;;;5032048;28;20642;-66
2023/02/17 00:11:05;;;;;;;2.47;2.20;;;8.20;85.10;;;;;;5050404;28;20650;-66
2023/02/17 00:13:31;;;;;;;2.17;1.90;;;8.20;84.90;;;;;;5034574;28;20666;-66
2023/02/17 00:15:59;;;;;;;2.70;1.57;;;8.20;85.90;;;;;;5030792;28;20662;-66
2023/02/17 00:18:26;;;;;;;2.40;1.80;;;8.10;85.60;;;;;;5045772;28;20629;-67
2023/02/17 00:20:53;;;;;;;3.40;3.10;;;8.20;85.90;;;;;;5031295;28;20653;-66
2023/02/17 00:23:21;;;;;;;1.83;1.73;;;8.10;86.90;;;;;;5044667;28;20720;-66
2023/02/17 00:25:47;;;;;;;2.63;2.23;;;8.00;86.10;;;;;;5049818;28;20650;-67
2023/02/17 00:28:14;;;;;;;3.77;1.70;;;8.00;86.50;;;;;;5042978;28;21243;-66
2023/02/17 00:30:41;;;;;;;3.00;2.33;;;8.00;86.70;;;;;;5029947;28;20651;-68
2023/02/17 00:33:08;;;;;;;3.43;2.20;;;8.00;86.70;;;;;;5040060;28;20623;-66
2023/02/17 00:35:40;;;;;;;2.37;2.20;;;8.00;87.10;;;;;;5039869;28;20662;-66
2023/02/17 00:38:07;;;;;;;2.97;1.77;;;8.00;87.50;;;;;;5044839;28;20699;-66
2023/02/17 00:40:35;;;;;;;2.87;2.60;;;8.00;87.10;;;;;;5060091;28;20675;-66
2023/02/17 00:43:02;;;;;;;7.40;2.10;;;8.00;87.30;;;;;;5039012;28;20623;-66
2023/02/17 00:45:28;;;;;;;2.20;1.73;;;8.00;87.50;;;;;;5029572;28;20648;-67
2023/02/17 00:47:55;;;;;;;1.90;1.47;;;8.00;87.80;;;;;;5029784;28;20665;-67
2023/02/17 00:50:22;;;;;;;1.67;1.57;;;8.10;88.30;;;;;;5042195;28;20615;-66
2023/02/17 00:52:49;;;;;;;3.80;1.80;;;8.10;87.70;;;;;;5030843;28;20635;-67
2023/02/17 00:55:15;;;;;;;2.53;2.20;;;8.00;87.80;;;;;;5049839;28;20622;-67
2023/02/17 00:57:44;;;;;;;2.20;1.80;;;8.00;87.60;;;;;;5049895;28;20634;-67
2023/02/17 01:00:11;;;;;;;2.73;1.93;;;8.00;87.80;;;;;;5068836;28;20616;-67
2023/02/17 01:02:38;;;;;;;2.33;1.90;;;8.00;88.30;;;;;;5048480;28;20637;-66
2023/02/17 01:05:06;;;;;;;2.63;1.70;;;8.00;88.40;;;;;;5037661;28;20633;-66
2023/02/17 01:07:32;;;;;;;1.90;1.23;;;7.90;89.40;;;;;;5033341;28;22518;-66
2023/02/17 01:09:59;;;;;;;2.00;1.53;;;7.90;88.70;;;;;;5049135;28;20968;-66
2023/02/17 01:12:26;;;;;;;1.67;1.40;;;7.90;88.80;;;;;;5044113;28;21231;-66
2023/02/17 01:14:54;;;;;;;2.53;2.33;;;7.90;89.00;;;;;;5028956;28;20739;-66
2023/02/17 01:17:21;;;;;;;2.30;1.30;;;7.90;88.90;;;;;;5029444;28;20651;-66
2023/02/17 01:19:48;;;;;;;3.10;1.90;;;8.00;88.90;;;;;;5029023;28;20657;-66
2023/02/17 01:22:14;;;;;;;3.67;2.17;;;8.00;89.70;;;;;;5030278;28;20690;-66
2023/02/17 01:24:41;;;;;;;1.33;1.00;;;8.00;88.70;;;;;;5041632;28;20726;-68
2023/02/17 01:27:08;;;;;;;1.73;1.47;;;8.00;88.90;;;;;;5037449;28;20678;-67
2023/02/17 01:29:35;;;;;;;1.47;1.37;;;8.00;89.10;;;;;;5049100;28;20626;-66
2023/02/17 01:32:03;;;;;;;1.83;1.73;;;8.00;89.10;;;;;;5046549;28;20649;-66
2023/02/17 01:34:30;;;;;;;1.90;1.73;;;8.00;89.30;;;;;;5029367;28;20631;-66
2023/02/17 01:36:56;;;;;;;4.40;2.27;;;8.10;89.10;;;;;;5044835;28;20658;-66
2023/02/17 01:39:23;;;;;;;2.00;1.30;;;8.00;89.30;;;;;;5035385;28;20664;-66
2023/02/17 01:41:50;;;;;;;1.73;1.63;;;8.00;89.30;;;;;;5064730;28;20652;-66
2023/02/17 01:44:20;;;;;;;2.27;2.07;;;8.00;89.40;;;;;;5046049;28;20627;-66
2023/02/17 01:46:49;;;;;;;11.30;1.77;;;7.90;89.30;;;;;;5048396;28;20764;-67
2023/02/17 01:49:28;;;;;;;3.20;1.87;;;8.00;89.50;;;;;;5046923;28;20685;-66
2023/02/17 01:52:01;;;;;;;2.73;1.93;;;8.00;89.70;;;;;;5039553;28;20659;-66
2023/02/17 01:54:33;;;;;;;1.40;1.23;;;8.00;90.00;;;;;;5032190;28;20637;-66
2023/02/17 01:57:01;;;;;;;3.53;2.80;;;7.90;90.00;;;;;;5048245;28;20647;-66
2023/02/17 01:59:30;;;;;;;1.53;1.43;;;7.90;90.00;;;;;;5060629;28;20626;-66
2023/02/17 02:02:00;;;;;;;1.33;1.23;;;7.90;90.10;;;;;;5029628;28;20654;-68
2023/02/17 02:04:32;;;;;;;1.73;1.47;;;7.90;89.90;;;;;;5027820;28;21173;-66
2023/02/17 02:06:59;;;;;;;3.03;1.70;;;7.90;90.00;;;;;;5028123;28;21583;-67
2023/02/17 02:09:31;;;;;;;2.30;1.03;;;7.90;90.00;;;;;;5028219;28;20603;-66
2023/02/17 02:11:59;;;;;;;1.20;1.13;;;7.90;90.10;;;;;;5028662;28;20749;-66
2023/02/17 02:14:27;;;;;;;2.30;1.60;;;7.90;90.20;;;;;;5029069;28;20615;-66
2023/02/17 02:17:05;;;;;;;1.90;1.10;;;7.90;90.20;;;;;;5030664;28;20663;-66
2023/02/17 02:20:10;;;;;;;1.73;0.93;;;7.90;90.10;;;;;;5027874;28;21427;-66
2023/02/17 02:23:07;;;;;;;2.10;1.80;;;7.90;90.10;;;;;;5021914;28;21088;-66
2023/02/17 02:26:00;;;;;;;2.67;1.83;;;7.90;90.40;;;;;;5042242;28;20673;-66
2023/02/17 02:28:39;;;;;;;2.27;2.07;;;7.90;90.20;;;;;;5040648;28;20672;-66
2023/02/17 02:31:28;;;;;;;2.50;2.30;;;8.00;90.30;;;;;;5047359;28;20638;-66
2023/02/17 02:33:59;;;;;;;0.73;0.73;;;7.90;90.20;;;;;;5029015;28;20631;-66
2023/02/17 02:36:30;;;;;;;3.13;2.93;;;8.00;90.10;;;;;;5030799;28;20679;-67
2023/02/17 02:39:02;;;;;;;1.43;1.33;;;8.00;90.00;;;;;;5028997;28;20750;-66
2023/02/17 02:41:32;;;;;;;0.90;0.90;;;8.00;90.20;;;;;;5039447;28;20986;-66
2023/02/17 02:44:02;;;;;;;1.83;1.73;;;8.10;90.00;;;;;;5033762;28;20642;-66
2023/02/17 02:46:30;;;;;;;1.73;1.40;;;8.00;90.10;;;;;;5047885;28;20973;-66
2023/02/17 02:49:00;;;;;;;6.20;1.97;;;8.00;89.80;;;;;;5045141;28;20677;-66
2023/02/17 02:51:43;;;;;;;1.23;1.17;;;8.00;89.60;;;;;;5047150;28;20638;-67
2023/02/17 02:54:21;;;;;;;3.30;2.20;;;8.10;90.00;;;;;;5028330;28;20627;-67
2023/02/17 02:57:23;;;;;;;5.40;2.07;;;8.00;89.70;;;;;;5043638;28;21273;-66
2023/02/17 03:00:04;;;;;;;1.63;1.53;;;8.10;89.90;;;;;;5035682;28;20725;-67
2023/02/17 03:02:37;;;;;;;1.97;1.50;;;8.20;89.90;;;;;;5035593;28;21029;-66
2023/02/17 03:05:12;;;;;;;2.80;2.40;;;8.10;89.90;;;;;;5046692;28;20615;-67
2023/02/17 03:07:44;;;;;;;2.87;1.70;;;8.10;90.10;;;;;;5046694;28;20661;-67
2023/02/17 03:10:13;;;;;;;1.20;1.10;;;8.10;89.90;;;;;;5034823;28;20991;-67
2023/02/17 03:12:40;;;;;;;2.70;1.73;;;8.10;90.00;;;;;;5038894;28;20631;-66
2023/02/17 03:15:14;;;;;;;4.40;2.10;;;8.00;90.00;;;;;;5027325;28;20611;-66
2023/02/17 03:17:41;;;;;;;1.10;1.00;;;8.00;90.00;;;;;;5031163;28;20618;-67
2023/02/17 03:20:13;;;;;;;3.57;2.00;;;8.00;89.90;;;;;;5046696;28;20982;-67
2023/02/17 03:22:44;;;;;;;1.60;1.10;;;8.00;90.10;;;;;;5039689;28;20623;-67
2023/02/17 03:25:12;;;;;;;1.73;1.60;;;7.90;90.00;;;;;;5027058;28;20631;-67
2023/02/17 03:27:40;;;;;;;8.63;1.13;;;7.80;90.40;;;;;;5029672;28;20705;-67
2023/02/17 03:30:10;;;;;;;3.13;1.40;;;7.90;90.20;;;;;;5031337;28;21143;-66
2023/02/17 03:32:37;;;;;;;2.27;1.50;;;7.90;90.30;;;;;;5046691;28;20630;-66
2023/02/17 03:35:05;;;;;;;1.23;0.90;;;7.90;90.20;;;;;;5034092;28;20718;-66
2023/02/17 03:37:33;;;;;;;1.20;1.10;;;7.90;90.30;;;;;;5036434;28;20985;-67
2023/02/17 03:40:00;;;;;;;1.17;1.00;;;7.90;90.40;;;;;;5054760;28;20983;-66
2023/02/17 03:42:27;;;;;;;1.53;1.40;;;7.90;90.40;;;;;;5036702;28;20649;-67
2023/02/17 03:44:54;;;;;;;1.93;1.23;;;7.80;90.30;;;;;;5046950;28;20618;-67
2023/02/17 03:47:21;;;;;;;4.33;1.60;;;7.90;90.40;;;;;;5041053;28;21011;-67
2023/02/17 03:49:50;;;;;;;2.13;1.40;;;7.90;90.40;;;;;;5026859;28;20623;-67
2023/02/17 03:52:17;;;;;;;3.70;2.17;;;7.90;90.40;;;;;;5029755;28;20635;-66
2023/02/17 03:54:46;;;;;;;1.40;1.30;;;7.80;90.50;;;;;;5047402;28;20626;-66
2023/02/17 03:57:14;;;;;;;2.87;1.33;;;7.80;90.70;;;;;;5031892;28;20739;-67
2023/02/17 03:59:42;;;;;;;6.87;1.90;;;7.80;90.60;;;;;;5053135;28;20726;-67
2023/02/17 04:02:09;;;;;;;2.83;2.30;;;7.70;90.60;;;;;;5040171;28;20654;-66
2023/02/17 04:04:37;;;;;;;2.40;2.20;;;7.70;90.70;;;;;;5030869;28;21300;-66
2023/02/17 04:07:05;;;;;;;2.23;1.37;;;7.70;90.70;;;;;;5047016;28;20642;-66
2023/02/17 04:09:31;;;;;;;1.70;1.60;;;7.70;90.70;;;;;;5046023;28;20672;-67
2023/02/17 04:12:00;;;;;;;1.30;1.03;;;7.60;90.90;;;;;;5044629;28;20656;-66
2023/02/17 04:14:26;;;;;;;1.43;1.27;;;7.50;91.10;;;;;;5046516;28;21408;-67
2023/02/17 04:16:53;;;;;;;1.87;1.77;;;7.50;91.10;;;;;;5046583;28;20648;-67
2023/02/17 04:19:20;;;;;;;1.83;1.33;;;7.50;91.20;;;;;;5049701;28;20701;-66
2023/02/17 04:21:47;;;;;;;1.40;1.30;;;7.50;91.40;;;;;;5048370;28;20681;-66
2023/02/17 04:24:14;;;;;;;0.67;0.67;;;7.40;91.60;;;;;;5032980;28;20619;-67
2023/02/17 04:26:40;;;;;;;2.47;2.33;;;7.40;91.60;;;;;;5030497;28;20647;-67
2023/02/17 04:29:08;;;;;;;1.83;1.73;;;7.40;91.40;;;;;;5043300;28;21121;-66
2023/02/17 04:31:35;;;;;;;2.17;2.07;;;7.50;91.50;;;;;;5049451;28;20844;-67
2023/02/17 04:34:02;;;;;;;1.10;1.00;;;7.50;91.50;;;;;;5032046;28;20623;-66
2023/02/17 04:36:29;;;;;;;2.13;1.73;;;7.50;91.60;;;;;;5040425;28;20669;-67
2023/02/17 04:38:56;;;;;;;1.87;1.53;;;7.40;91.50;;;;;;5049138;28;20626;-66
2023/02/17 04:41:22;;;;;;;3.55;1.90;;;7.40;91.60;;;;;;5046849;28;20761;-67
2023/02/17 04:43:49;;;;;;;0.80;0.80;;;7.40;91.70;;;;;;5033723;28;20284;-67
2023/02/17 04:46:17;;;;;;;3.60;2.17;;;7.60;91.80;;;;;;5030037;28;20671;-66
2023/02/17 04:48:44;;;;;;;2.17;1.97;;;7.60;91.90;;;;;;5029627;28;21236;-67
2023/02/17 04:51:11;;;;;;;2.30;1.37;;;7.60;92.00;;;;;;5029777;28;20661;-67
2023/02/17 04:53:38;;;;;;;3.53;2.10;;;7.70;92.00;;;;;;5030884;28;20631;-67
2023/02/17 04:56:05;;;;;;;2.57;1.33;;;7.80;92.00;;;;;;5029425;28;20701;-67
2023/02/17 04:58:32;;;;;;;3.83;1.23;;;7.80;91.80;;;;;;5051839;28;20614;-67
2023/02/17 05:01:00;;;;;;;2.53;1.07;;;7.90;91.80;;;;;;5069693;28;20719;-67
2023/02/17 05:03:28;;;;;;;1.20;1.10;;;7.90;91.80;;;;;;5050318;28;20622;-68
2023/02/17 05:05:55;;;;;;;1.43;1.43;;;7.90;91.80;;;;;;5045055;28;20677;-68
2023/02/17 05:08:22;;;;;;;4.37;1.90;;;7.90;91.90;;;;;;5029354;28;20666;-65
2023/02/17 05:10:50;;;;;;;1.23;1.13;;;7.80;92.10;;;;;;5029584;28;20657;-67
2023/02/17 05:13:17;;;;;;;2.30;1.63;;;7.80;92.20;;;;;;5042986;28;20725;-67
2023/02/17 05:15:44;;;;;;;2.47;1.55;;;7.90;92.50;;;;;;5041425;28;20658;-67
2023/02/17 05:18:10;;;;;;;1.37;1.27;;;8.10;92.50;;;;;;5034066;28;20208;-67
2023/02/17 05:20:39;;;;;;;1.17;1.00;;;8.10;92.50;;;;;;5029843;28;20643;-67
2023/02/17 05:23:06;;;;;;;2.00;1.80;;;8.20;92.70;;;;;;5037508;28;20637;-67
2023/02/17 05:25:33;;;;;;;2.97;1.90;;;8.20;92.70;;;;;;5039528;28;20658;-67
2023/02/17 05:28:00;;;;;;;2.23;1.70;;;8.20;93.10;;;;;;5037967;28;20629;-67
2023/02/17 05:30:27;;;;;;;1.70;1.60;;;8.10;92.80;;;;;;5044376;28;20650;-67
2023/02/17 05:32:55;;;;;;;2.93;2.27;;;8.10;93.00;;;;;;5040293;28;20633;-69
2023/02/17 05:35:22;;;;;;;3.50;1.50;;;8.20;93.30;;;;;;5043080;28;21200;-69
2023/02/17 05:37:50;;;;;;;2.03;1.27;;;8.20;93.30;;;;;;5041428;28;20642;-69
2023/02/17 05:40:19;;;;;;;1.93;1.73;;;8.20;93.20;;;;;;5045592;28;20631;-69
2023/02/17 05:42:46;;;;;;;3.17;2.17;;;8.20;93.40;;;;;;5041964;28;20630;-70
2023/02/17 05:45:13;;;;;;;3.10;2.22;;;8.20;93.50;;;;;;5030215;28;20842;-69
2023/02/17 05:47:40;;;;;;;2.37;1.87;;;8.20;93.50;;;;;;5037760;28;20301;-69
2023/02/17 05:50:08;;;;;;;1.37;1.37;;;8.20;93.60;;;;;;5036469;28;20663;-69
2023/02/17 05:52:45;;;;;;;1.80;1.53;;;8.30;93.70;;;;;;5034732;28;21365;-70
2023/02/17 05:55:35;;;;;;;3.00;1.50;;;8.30;93.60;;;;;;5048179;28;20618;-71
2023/02/17 05:58:02;;;;;;;4.50;2.60;;;8.30;93.70;;;;;;5048096;28;20649;-70
2023/02/17 06:00:29;;;;;;;2.23;2.03;;;8.40;93.80;;;;;;5045096;28;20665;-69
2023/02/17 06:02:56;;;;;;;8.73;2.60;;;8.40;94.00;;;;;;5046749;28;20634;-69
2023/02/17 06:05:23;;;;;;;5.57;1.47;;;8.40;94.00;;;;;;5047195;28;20645;-69
2023/02/17 06:07:50;;;;;;;2.50;2.00;;;8.40;93.90;;;;;;5043104;28;20773;-68
2023/02/17 06:10:17;;;;;;;2.67;2.10;;;8.40;94.20;;;;;;5038120;28;20666;-67
2023/02/17 06:12:45;;;;;;;8.07;1.00;;;8.30;94.40;;;;;;5041903;28;20641;-67
2023/02/17 06:15:12;;;;;;;2.17;1.97;;;8.40;94.50;;;;;;5044436;28;20723;-67
2023/02/17 06:17:39;;;;;;;2.30;2.10;;;8.40;94.30;;;;;;5035150;28;21277;-67
2023/02/17 06:20:07;;;;;;;1.37;1.27;;;8.60;94.60;;;;;;5035917;28;20628;-67
2023/02/17 06:22:34;;;;;;;1.80;1.67;;;8.80;94.50;;;;;;5028156;28;20631;-67
2023/02/17 06:25:01;;;;;;;2.00;1.23;;;8.90;94.30;;;;;;5037541;28;20630;-69
2023/02/17 06:27:28;;;;;;;1.60;0.90;;;8.80;94.20;;;;;;5044757;28;21607;-67
2023/02/17 06:29:56;;;;;;;1.20;1.10;;;8.80;94.40;;;;;;5025447;28;20673;-67
2023/02/17 06:32:23;;;;;;;2.03;1.83;;;8.80;94.40;;;;;;5028766;28;20967;-68
2023/02/17 06:34:50;;;;;;;1.70;1.60;;;8.70;94.50;;;;;;5035851;28;20697;-67
2023/02/17 06:37:17;;;;;;;1.10;1.00;;;8.70;94.60;;;;;;5034835;28;20753;-66
2023/02/17 06:39:44;;;;;;;2.60;1.13;;;8.80;94.60;;;;;;5041447;28;20621;-68
2023/02/17 06:42:10;;;;;;;1.43;1.33;;;8.80;94.60;;;;;;5037317;28;20651;-66
2023/02/17 06:44:37;;;;;;;2.77;1.87;;;8.80;94.60;;;;;;5038547;28;21222;-67
2023/02/17 06:47:05;;;;;;;1.57;1.23;;;8.80;94.60;;;;;;5033109;28;20800;-67
2023/02/17 06:49:32;;;;;;;1.97;1.10;;;8.80;94.60;;;;;;5039497;28;20681;-66
2023/02/17 06:51:59;;;;;;;1.57;1.40;;;8.80;94.50;;;;;;5027865;28;20666;-67
2023/02/17 06:54:26;;;;;;;2.30;0.97;;;8.80;94.50;;;;;;5028982;28;20631;-66
2023/02/17 06:56:52;;;;;;;2.10;1.20;;;8.80;94.60;;;;;;5027017;28;20661;-66
2023/02/17 06:59:19;;;;;;;3.60;1.47;;;8.70;94.90;;;;;;5033268;28;20631;-67
2023/02/17 07:01:48;;;;;;;3.50;2.77;;;8.80;94.90;;;;;;5026179;28;20654;-66
2023/02/17 07:04:16;;;;;;;2.50;2.30;;;8.80;94.80;;;;;;5027203;28;20635;-67
2023/02/17 07:06:43;;;;;;;2.90;2.70;;;8.80;94.90;;;;;;5030958;28;20735;-68
2023/02/17 07:09:10;;;;;;;1.60;1.50;;;8.80;95.10;;;;;;5029112;28;20896;-66
2023/02/17 07:11:37;;;;;;;1.70;1.50;;;8.80;95.10;;;;;;5025800;28;20659;-67
2023/02/17 07:14:03;;;;;;;1.67;1.57;;;8.80;95.10;;;;;;5044098;28;20983;-67
2023/02/17 07:16:30;;;;;;;1.60;1.10;;;8.80;95.00;;;;;;5045609;28;20665;-68
2023/02/17 07:19:04;;;;;;;3.50;1.70;;;8.80;95.00;;;;;;5032884;28;20701;-68
2023/02/17 07:21:39;;;;;;;1.63;1.40;;;8.90;95.10;;;;;;5033732;28;20661;-69
2023/02/17 07:24:06;;;;;;;1.83;1.67;;;8.90;95.10;;;;;;5037564;28;20615;-69
2023/02/17 07:26:36;;;;;;;2.67;1.50;;;8.90;95.20;;;;;;5043779;28;20769;-67
2023/02/17 07:29:03;;;;;;;1.13;1.03;;;8.90;95.30;;;;;;5029864;28;20667;-67
2023/02/17 07:31:29;;;;;;;1.87;1.40;;;8.90;95.30;;;;;;5036508;28;20650;-65
2023/02/17 07:33:56;;;;;;;1.63;1.00;;;9.10;95.10;;;;;;5026520;28;20641;-67
2023/02/17 07:36:23;;;;;;;1.47;1.37;;;9.20;95.00;;;;;;5028237;28;20750;-67
2023/02/17 07:38:51;;;;;;;1.33;1.07;;;9.20;95.00;;;;;;5038997;28;21041;-67
2023/02/17 07:41:20;;;;;;;1.27;1.10;;;9.10;95.20;;;;;;5064544;28;20685;-67
2023/02/17 07:43:48;;;;;;;2.50;1.53;;;9.20;95.30;;;;;;5038947;28;20606;-66
2023/02/17 07:46:15;;;;;;;1.33;1.23;;;9.20;95.50;;;;;;5037461;28;20658;-67
2023/02/17 07:48:42;;;;;;;0.90;0.60;;;9.20;95.40;;;;;;5033150;28;21317;-69
2023/02/17 07:51:11;;;;;;;0.70;0.70;;;9.30;95.50;;;;;;5025138;28;20757;-66
2023/02/17 07:53:39;;;;;;;2.63;1.80;;;9.40;95.70;;;;;;5038602;28;20634;-66
2023/02/17 07:56:09;;;;;;;2.73;0.83;;;9.30;95.60;;;;;;5045385;28;20665;-65
2023/02/17 07:58:37;;;;;;;1.73;1.10;;;9.40;95.70;;;;;;5037699;28;20639;-66
2023/02/17 08:01:06;;;;;;;1.23;1.07;;;9.40;95.60;;;;;;5040625;28;20656;-66
2023/02/17 08:03:33;;;;;;;1.50;1.40;;;9.30;95.70;;;;;;5042714;28;20725;-66
2023/02/17 08:06:00;;;;;;;3.20;1.97;;;9.30;95.80;;;;;;5048346;28;20633;-66
2023/02/17 08:13:59;;;;;;;1.87;1.10;;;9.40;96.00;;;;;;5036713;28;20618;-66
2023/02/17 08:16:26;;;;;;;0.87;0.80;;;9.40;96.30;;;;;;5043357;28;20746;-67
2023/02/17 08:18:54;;;;;;;3.03;1.30;;;9.50;96.80;;;;;;5041373;28;20633;-66
2023/02/17 08:21:21;;;;;;;2.97;1.90;;;9.60;96.40;;;;;;5048242;28;20657;-66
2023/02/17 08:23:48;;;;;;;1.47;0.97;;;9.50;96.40;;;;;;5031369;28;21239;-66
2023/02/17 08:26:17;;;;;;;1.63;1.27;;;9.70;96.50;;;;;;5037973;28;20649;-67
2023/02/17 08:28:44;;;;;;;1.83;1.73;;;9.80;96.50;;;;;;5038192;28;20638;-67
2023/02/17 08:31:19;;;;;;;9.13;1.10;;;9.90;96.30;;;;;;5038342;28;21020;-67
2023/02/17 08:33:46;;;;;;;1.20;1.10;;;9.90;96.40;;;;;;5038121;28;21223;-66
2023/02/17 08:36:13;;;;;;;0.73;0.73;;;9.90;96.50;;;;;;5046545;28;20737;-67
2023/02/17 08:38:40;;;;;;;1.70;1.60;;;9.90;96.60;;;;;;5045307;28;21241;-66
2023/02/17 08:41:14;;;;;;;1.30;1.20;;;9.90;96.70;;;;;;5044725;28;20650;-66
2023/02/17 08:43:43;;;;;;;1.90;1.70;;;10.00;96.10;;;;;;5033035;28;21264;-66
2023/02/17 08:46:11;;;;;;;1.23;1.00;;;10.00;96.20;;;;;;5047352;28;21017;-66
2023/02/17 08:48:38;;;;;;;0.93;0.93;;;10.00;96.30;;;;;;5044523;28;21285;-66
2023/02/17 08:51:05;;;;;;;0.93;0.77;;;10.00;96.40;;;;;;5045252;28;20766;-67
2023/02/17 08:53:34;;;;;;;1.40;1.03;;;10.10;96.20;;;;;;5038152;28;20637;-69
2023/02/17 08:56:01;;;;;;;1.77;0.90;;;10.20;96.30;;;;;;5039919;28;20666;-67
2023/02/17 08:58:28;;;;;;;3.60;0.90;;;10.30;96.30;;;;;;5042882;28;20614;-68
2023/02/17 09:00:56;;;;;;;1.00;0.83;;;10.40;96.10;;;;;;5027706;28;20635;-66
2023/02/17 09:03:23;;;;;;;1.13;0.97;;;10.40;96.30;;;;;;5025816;28;20876;-67
2023/02/17 09:05:53;;;;;;;1.77;1.30;;;10.40;96.30;;;;;;5026252;28;20651;-67
2023/02/17 09:08:20;;;;;;;1.00;0.90;;;10.30;96.20;;;;;;5028610;28;20615;-67
2023/02/17 09:10:47;;;;;;;0.50;0.50;;;10.40;96.30;;;;;;5028256;28;20685;-67
2023/02/17 09:13:14;;;;;;;0.67;0.67;;;10.20;96.40;;;;;;5039604;28;20625;-67
2023/02/17 09:15:41;;;;;;;1.37;1.27;;;10.30;96.50;;;;;;5048451;28;20660;-67
2023/02/17 09:18:09;;;;;;;1.70;1.30;;;10.30;96.50;;;;;;5044850;28;20630;-67
2023/02/17 09:20:36;;;;;;;0.80;0.80;;;10.30;96.60;;;;;;5038428;28;20765;-67
2023/02/17 09:23:03;;;;;;;1.03;0.93;;;10.30;96.60;;;;;;5037656;28;20623;-67
2023/02/17 09:25:30;;;;;;;0.70;0.70;;;10.30;96.70;;;;;;5047926;28;20654;-67
2023/02/17 09:27:57;;;;;;;1.47;1.13;;;10.30;96.90;;;;;;5041972;28;20613;-67
2023/02/17 09:30:24;;;;;;;1.90;1.77;;;10.30;96.90;;;;;;5047662;28;20716;-67
2023/02/17 09:32:51;;;;;;;0.87;0.77;;;10.30;96.80;;;;;;5030324;28;20616;-67
2023/02/17 09:35:19;;;;;;;1.13;1.03;;;10.30;97.00;;;;;;5028524;28;20746;-67
2023/02/17 09:37:46;;;;;;;0.90;0.90;;;10.40;96.90;;;;;;5037847;28;20653;-67
2023/02/17 09:40:18;;;;;;;0.80;0.80;;;10.40;96.90;;;;;;5045772;28;20640;-67
2023/02/17 09:42:46;;;;;;;2.30;1.70;;;10.50;96.90;;;;;;5034481;28;20674;-67
2023/02/17 09:45:19;;;;;;;1.10;0.83;;;10.50;96.90;;;;;;5034714;28;20636;-67
2023/02/17 09:47:49;;;;;;;1.47;1.20;;;10.60;96.90;;;;;;5042252;28;20724;-67
2023/02/17 09:50:23;;;;;;;1.47;1.37;;;10.60;96.90;;;;;;5045374;28;20662;-67
2023/02/17 09:52:55;;;;;;;0.80;0.80;;;10.70;96.80;;;;;;5045485;28;21223;-67
2023/02/17 09:55:28;;;;;;;3.13;0.90;;;10.70;96.80;;;;;;5034676;28;21020;-68
2023/02/17 09:57:58;;;;;;;0.70;0.70;;;10.70;97.00;;;;;;5041592;28;20626;-68
2023/02/17 10:00:29;;;;;;;0.60;0.60;;;10.70;97.00;;;;;;5047567;28;20662;-67
2023/02/17 10:03:04;;;;;;;1.67;1.33;;;10.70;97.10;;;;;;5044580;28;20653;-67
2023/02/17 10:05:36;;;;;;;0.93;0.60;;;10.70;97.00;;;;;;5047253;28;20749;-67
2023/02/17 10:08:10;;;;;;;1.27;1.17;;;10.80;97.10;;;;;;5041692;28;20627;-68
2023/02/17 10:10:43;;;;;;;1.60;1.50;;;10.90;97.20;;;;;;5035811;28;21199;-67
2023/02/17 10:13:13;;;;;;;1.87;1.53;;;11.10;97.20;;;;;;5030698;28;20738;-67
2023/02/17 10:15:42;;;;;;;1.23;0.83;;;11.40;97.00;;;;;;5028690;28;20701;-67
2023/02/17 10:18:14;;;;;;;2.37;0.83;;;11.50;96.90;;;;;;5040827;28;20623;-67
2023/02/17 10:20:47;;;;;;;1.20;1.20;;;11.60;96.40;;;;;;5045938;28;20787;-67
2023/02/17 10:23:17;;;;;;;3.20;1.33;;;11.50;96.40;;;;;;5039047;28;20620;-67
2023/02/17 10:26:15;;;;;;;1.07;0.93;;;11.40;96.40;;;;;;5036250;28;20653;-67
2023/02/17 10:28:50;;;;;;;1.63;1.37;;;11.40;96.40;;;;;;5027699;28;20639;-68
2023/02/17 10:31:26;;;;;;;3.93;1.60;;;11.40;96.70;;;;;;5042622;28;21034;-67
2023/02/17 10:34:01;;;;;;;1.13;0.93;;;11.50;96.40;;;;;;5027115;28;20658;-67
2023/02/17 10:36:38;;;;;;;0.87;0.80;;;11.70;96.60;;;;;;5045123;28;20656;-67
2023/02/17 10:39:13;;;;;;;1.07;1.03;;;11.80;96.30;;;;;;5039873;28;20974;-68
2023/02/17 10:41:42;;;;;;;2.27;0.87;;;11.90;96.50;;;;;;5063008;28;20665;-67
2023/02/17 10:44:14;;;;;;;1.70;1.27;;;12.00;96.20;;;;;;5037492;28;21030;-66
2023/02/17 10:46:43;;;;;;;0.90;0.70;;;12.10;96.20;;;;;;5029581;28;20649;-67
2023/02/17 10:49:18;;;;;;;0.60;0.60;;;12.20;95.80;;;;;;5041287;28;20683;-67
2023/02/17 10:51:46;;;;;;;0.90;0.90;;;12.50;96.00;;;;;;5041113;28;21101;-67
2023/02/17 10:54:24;;;;;;;1.53;1.30;;;12.60;95.30;;;;;;5036023;28;20630;-66
2023/02/17 10:56:54;;;;;;;0.70;0.70;;;12.50;95.50;;;;;;5045407;28;20654;-67
2023/02/17 10:59:25;;;;;;;0.50;0.50;;;12.50;95.40;;;;;;5040111;28;20959;-67
2023/02/17 11:01:57;;;;;;;0.50;0.50;;;12.60;95.40;;;;;;5028482;28;20670;-67
2023/02/17 11:04:24;;;;;;;1.30;1.17;;;12.60;95.40;;;;;;5026163;28;20750;-66
2023/02/17 11:06:54;;;;;;;1.17;0.80;;;12.60;95.50;;;;;;5038478;28;20227;-67
2023/02/17 11:09:27;;;;;;;0.70;0.70;;;12.60;95.50;;;;;;5043916;28;20622;-66
2023/02/17 11:11:59;;;;;;;0.57;0.47;;;12.50;95.40;;;;;;5042365;28;20678;-67
2023/02/17 11:14:28;;;;;;;0.63;0.63;;;12.50;95.70;;;;;;5026222;28;20637;-67
2023/02/17 11:16:58;;;;;;;0.40;0.40;;;12.50;95.70;;;;;;5025821;28;21049;-66
2023/02/17 11:19:27;;;;;;;0.47;0.47;;;12.60;95.60;;;;;;5045625;28;20626;-67
2023/02/17 11:21:57;;;;;;;0.80;0.70;;;12.60;95.60;;;;;;5046542;28;21215;-66
2023/02/17 11:24:25;;;;;;;0.80;0.70;;;12.70;95.40;;;;;;5044114;28;20626;-67
2023/02/17 11:26:57;;;;;;;1.53;0.70;;;12.80;95.70;;;;;;5039874;28;20757;-66
2023/02/17 11:29:24;;;;;;;0.70;0.70;;;12.90;95.30;;;;;;5033659;28;20623;-67
2023/02/17 11:31:55;;;;;;;0.70;0.70;;;12.90;95.30;;;;;;5030727;28;20738;-67
2023/02/17 11:34:24;;;;;;;0.50;0.50;;;13.00;95.30;;;;;;5030122;28;20630;-66
2023/02/17 11:37:00;;;;;;;1.27;1.17;;;12.90;95.20;;;;;;5030927;28;20761;-68
2023/02/17 11:39:28;;;;;;;1.63;1.40;;;12.80;95.40;;;;;;5043658;28;20617;-67
2023/02/17 11:41:55;;;;;;;1.50;1.03;;;12.80;95.40;;;;;;5049285;28;20650;-67
2023/02/17 11:44:27;;;;;;;0.90;0.80;;;12.80;95.50;;;;;;5030693;28;20628;-67
2023/02/17 11:47:09;;;;;;;3.10;1.90;;;12.70;95.60;;;;;;5045002;28;20655;-67
2023/02/17 11:49:48;;;;;;;0.70;0.70;;;12.70;95.90;;;;;;5031046;28;21357;-67
2023/02/17 11:52:34;;;;;;;1.00;0.90;;;12.70;95.60;;;;;;5031456;28;20223;-67
2023/02/17 11:55:17;;;;;;;0.97;0.50;;;12.60;95.80;;;;;;5036567;28;20701;-67
2023/02/17 11:57:53;;;;;;;0.63;0.63;;;12.50;95.90;;;;;;5049458;28;20968;-67
2023/02/17 12:00:22;;;;;;;1.33;0.53;;;12.50;96.10;;;;;;5036570;28;21005;-67
2023/02/17 12:03:05;;;;;;;1.67;1.03;;;12.60;96.10;;;;;;5030411;28;20629;-67
2023/02/17 12:05:50;;;;;;;0.40;0.40;;;12.50;96.00;;;;;;5034850;28;20665;-67
2023/02/17 12:08:27;;;;;;;2.83;0.90;;;12.60;96.30;;;;;;5042832;28;21023;-68
2023/02/17 12:11:02;;;;;;;1.53;0.73;;;12.50;96.30;;;;;;5045388;28;20677;-67
2023/02/17 12:13:39;;;;;;;6.70;1.13;;;12.50;96.30;;;;;;5036668;28;20626;-67
2023/02/17 12:16:18;;;;;;;0.77;0.47;;;12.40;96.30;;;;;;5037630;28;21031;-67
2023/02/17 12:19:02;;;;;;;1.80;0.70;;;12.40;96.50;;;;;;5034844;28;20730;-67
2023/02/17 12:21:50;;;;;;;1.13;0.67;;;12.40;96.50;;;;;;5047778;28;20649;-67
2023/02/17 12:24:48;;;;;;;1.30;0.93;;;12.50;96.30;;;;;;5048953;28;20641;-67
2023/02/17 12:27:28;;;;;;;0.47;0.47;;;12.40;96.30;;;;;;5038069;28;20666;-67
2023/02/17 12:30:21;;;;;;;0.53;0.53;;;12.50;96.50;;;;;;5040372;28;20620;-66
2023/02/17 12:33:04;;;;;;;1.27;0.70;;;12.40;96.40;;;;;;5039132;28;20630;-67
2023/02/17 12:35:40;;;;;;;1.80;0.57;;;12.30;96.50;;;;;;5033131;28;20672;-67
2023/02/17 12:38:13;;;;;;;0.30;0.20;;;12.40;96.70;;;;;;5032280;28;21211;-67
2023/02/17 12:40:45;;;;;;;0.73;0.50;;;12.40;96.80;;;;;;5062155;28;20986;-67
2023/02/17 12:43:23;;;;;;;0.67;0.60;;;12.40;96.70;;;;;;5055047;28;20634;-67
2023/02/17 12:45:52;;;;;;;0.50;0.50;;;12.50;96.70;;;;;;5040601;28;20661;-67
2023/02/17 12:48:25;;;;;;;0.50;0.50;;;12.50;96.50;;;;;;5042761;28;20625;-69
2023/02/17 12:50:59;;;;;;;1.40;1.00;;;12.50;96.50;;;;;;5033997;28;20682;-67
2023/02/17 12:53:39;;;;;;;0.40;0.30;;;12.50;96.80;;;;;;5029519;28;20626;-67
2023/02/17 12:56:38;;;;;;;1.13;0.50;;;12.50;96.60;;;;;;5038840;28;20753;-67
2023/02/17 12:59:13;;;;;;;1.20;1.10;;;12.60;96.70;;;;;;5035187;28;20626;-67
2023/02/17 13:01:52;;;;;;;1.57;0.60;;;12.60;96.60;;;;;;5031891;28;20936;-69
2023/02/17 13:04:23;;;;;;;0.70;0.70;;;12.60;96.60;;;;;;5047110;28;20729;-67
2023/02/17 13:06:57;;;;;;;0.60;0.33;;;12.60;96.70;;;;;;5049279;28;20658;-67
2023/02/17 13:09:30;;;;;;;7.47;0.60;;;12.60;96.40;;;;;;5046553;28;20627;-67
2023/02/17 13:12:26;;;;;;;2.20;1.10;;;12.70;96.50;;;;;;5039628;28;21032;-67
2023/02/17 13:14:55;;;;;;;0.87;0.87;;;12.70;96.40;;;;;;5041914;28;20638;-67